Terminal Aerodrome Forecast
Issued by NWS Portland, ME

Home | Current Version | Previous Version | Text Only | Print | Product List | Glossary On
Versions: 1 2 3 4 5 6 7 8 9 10 11 12 13 14 15 16 17
000
FTUS41 KGYX 232323
TAFPWM
TAF
KPWM 232323Z 2400/2424 VRB03KT P6SM BKN050
     FM240900 13005KT 6SM -RA OVC015
     FM241300 13010KT 2SM RA BR OVC003 WS020/17060KT
     FM241800 15012G20KT 4SM -DZ BR OVC003=

USA.gov is the U.S. government's official web portal to all federal, state and local government web resources and services.